Nanaimo Airport
CYCD : rendu visible

Aérodrome :











RETROUVEZ-NOUS SUR...

 
LOGIN :

S'inscrire | Disclaimer

   EN    FR    IT 

 









Légende :    VFR   VFR Marginal   IFR   IFR Intensif   IFR Très Intensif
Visi : 
Plafond : 
>= 8 km
>= 3000ft
5 à 8 km
1000 à 3000 ft
1500m à 5 km
500 à 1000 ft
800 à 1500m
200 à 500 ft
< 800m
< 200 ft
Symboles :   Orages  Brouillard  Fortes neiges  Fortes précipitations  Vent > 20 kt






- Altitude de l'aérodrome : 93 ft
- Code IATA : YCD


CYCD - Nanaimo

DERNIER METAR :
  • 241600Z 25005KT 25SM SCT052 BKN064 03/00 A3052 RMK SC3SC4 SLP338

METARs EXPIRÉS :
  • 241500Z 23004KT 25SM SCT047 BKN064 02/00 A3050 RMK SC4SC3 SLP329
  • 241400Z 29004KT 250V350 15SM SCT030 OVC054 03/00 A3048 RMK SC3SC5 SLP324

TAF TAF CYCD
Valide du 24 à 16h jusqu'au 25 à 04h UTC


241538Z 2416/2504 VRB03KT P6SM SCT040 BKN070
TEMPO 2416/2421 P6SM -SHRA BKN040
FM242100 VRB03KT P6SM FEW050 SCT080 BKN240 RMK NXT FCST BY 241800Z



MET'MAP, la Météo Aéronautique d'un coup d'oeil ! - Copyright ORBIFLY Décembre 2007 - Disclaimer

ORBIFLY MET'MAP TEAM :

Programmation & Développement : Alexandra Zaïnal
Sur une idée originale de : Baudouin d'Aumeries
Assistance à la programmation : Marc-Olivier Méhu
Soutien technique & logistique : Manuel Goepfert

Contact : metmap@orbifly.com




SOURCES & CREDITS :

   NOAA       Earth
Advisory